createdAt,value
2022-11-29T09:09:01.703Z,35.64
2022-11-29T09:11:32.285Z,35.52
2022-11-29T09:14:05.946Z,35.98
2022-11-29T09:16:37.810Z,36.19
2022-11-29T09:19:08.157Z,36.33
2022-11-29T09:21:38.338Z,36.88
2022-11-29T09:25:07.123Z,36.97
2022-11-29T09:28:35.788Z,36.52
2022-11-29T09:32:10.744Z,36.70
2022-11-29T09:35:19.066Z,36.93
2022-11-29T09:38:47.714Z,37.13
2022-11-29T09:41:51.827Z,37.27
2022-11-29T09:44:58.852Z,36.89
2022-11-29T09:48:17.201Z,36.66
2022-11-29T09:51:49.123Z,37.05
2022-11-29T09:55:03.880Z,37.21
2022-11-29T09:58:32.678Z,36.54
2022-11-29T10:02:01.395Z,37.12
2022-11-29T10:05:35.789Z,37.21
2022-11-29T10:09:05.315Z,36.52
2022-11-29T10:12:49.310Z,37.13
2022-11-29T10:16:20.760Z,36.88
2022-11-29T10:20:01.321Z,36.40
2022-11-29T10:23:42.547Z,36.92
2022-11-29T10:27:11.563Z,36.96
2022-11-29T10:30:40.183Z,36.66
2022-11-29T10:34:08.847Z,36.68
2022-11-29T10:38:14.496Z,37.04
2022-11-29T10:41:41.125Z,36.58
2022-11-29T10:45:09.753Z,36.47
2022-11-29T10:48:38.701Z,36.67
2022-11-29T10:52:07.326Z,37.48
2022-11-29T10:55:42.130Z,37.57
2022-11-29T10:59:10.738Z,37.73
2022-11-29T11:02:39.372Z,37.82
2022-11-29T11:06:08.136Z,37.97
2022-11-29T11:16:25.923Z,37.32
2022-11-29T11:19:46.684Z,38.10
2022-11-29T11:23:15.342Z,37.41
2022-11-29T11:26:44.105Z,37.31
2022-11-29T11:30:15.680Z,37.36
2022-11-29T11:33:30.508Z,37.88
2022-11-29T11:36:35.082Z,37.79
2022-11-29T11:40:06.447Z,37.72
2022-11-29T11:43:35.103Z,30.32
2022-11-29T11:47:03.702Z,32.92
2022-11-29T11:50:22.224Z,33.81
2022-11-29T11:53:57.079Z,31.59
2022-11-29T11:57:25.752Z,32.32
2022-11-29T12:01:09.896Z,30.94
2022-11-29T12:04:11.248Z,31.82
2022-11-29T12:07:18.766Z,31.46
2022-11-29T12:10:50.499Z,31.24
2022-11-29T12:14:19.436Z,32.22
2022-11-29T12:17:54.469Z,29.15
2022-11-29T12:21:06.557Z,29.34
2022-11-29T12:24:35.566Z,28.95
2022-11-29T12:28:04.179Z,30.84
2022-11-29T12:31:28.403Z,29.25
2022-11-29T12:34:38.142Z,31.27
2022-11-29T12:37:51.457Z,29.55
2022-11-29T12:41:25.921Z,30.94
2022-11-29T12:44:49.843Z,31.73
2022-11-29T12:47:37.727Z,32.09
2022-11-29T12:50:33.055Z,30.01
2022-11-29T12:53:31.132Z,29.15
2022-11-29T12:56:35.513Z,30.29
2022-11-29T12:59:26.899Z,30.33
2022-11-29T13:02:18.825Z,28.79
2022-11-29T13:05:53.548Z,31.19
2022-11-29T13:09:11.662Z,28.13
2022-11-29T13:12:40.277Z,29.48
